sensor_id;sensor_type;location;lat;lon;timestamp;pressure;altitude;pressure_sealevel;temperature;humidity
57904;BME280;43720;47.462;19.030;2023-02-16T05:07:13;101650.25;;;-1.72;98.49
57904;BME280;43720;47.462;19.030;2023-02-16T05:10:16;101647.06;;;-1.80;100.00
57904;BME280;43720;47.462;19.030;2023-02-16T05:13:18;101637.44;;;-1.72;99.55
57904;BME280;43720;47.462;19.030;2023-02-16T05:16:40;101644.63;;;-1.68;98.95
57904;BME280;43720;47.462;19.030;2023-02-16T05:19:44;101641.28;;;-1.77;99.47
57904;BME280;43720;47.462;19.030;2023-02-16T05:22:47;101641.28;;;-1.77;99.97
57904;BME280;43720;47.462;19.030;2023-02-16T05:25:49;101647.31;;;-1.66;99.06
57904;BME280;43720;47.462;19.030;2023-02-16T05:28:51;101638.72;;;-1.77;99.47
57904;BME280;43720;47.462;19.030;2023-02-16T05:31:53;101638.72;;;-1.77;99.51
57904;BME280;43720;47.462;19.030;2023-02-16T05:34:56;101642.31;;;-1.85;100.00
57904;BME280;43720;47.462;19.030;2023-02-16T05:37:58;101638.34;;;-1.82;100.00
57904;BME280;43720;47.462;19.030;2023-02-16T05:41:00;101640.00;;;-1.72;100.00
57904;BME280;43720;47.462;19.030;2023-02-16T05:44:04;101637.31;;;-1.53;99.95
57904;BME280;43720;47.462;19.030;2023-02-16T05:47:07;101636.28;;;-1.45;98.71
57904;BME280;43720;47.462;19.030;2023-02-16T05:50:10;101647.94;;;-1.59;98.98
57904;BME280;43720;47.462;19.030;2023-02-16T05:53:12;101640.78;;;-1.73;99.51
57904;BME280;43720;47.462;19.030;2023-02-16T05:56:16;101639.63;;;-1.56;98.96
57904;BME280;43720;47.462;19.030;2023-02-16T05:59:19;101638.72;;;-1.46;97.95
57904;BME280;43720;47.462;19.030;2023-02-16T06:02:21;101644.88;;;-1.55;97.84
57904;BME280;43720;47.462;19.030;2023-02-16T06:05:24;101640.13;;;-1.70;98.67
57904;BME280;43720;47.462;19.030;2023-02-16T06:08:27;101632.06;;;-1.75;98.52
57904;BME280;43720;47.462;19.030;2023-02-16T06:11:30;101623.59;;;-1.84;99.61
57904;BME280;43720;47.462;19.030;2023-02-16T06:14:38;101628.19;;;-1.60;98.40
57904;BME280;43720;47.462;19.030;2023-02-16T06:17:42;101626.66;;;-1.68;98.20
57904;BME280;43720;47.462;19.030;2023-02-16T06:20:45;101631.69;;;-1.80;98.84
57904;BME280;43720;47.462;19.030;2023-02-16T06:23:48;101633.59;;;-1.67;98.50
57904;BME280;43720;47.462;19.030;2023-02-16T06:26:50;101640.91;;;-1.82;99.31
57904;BME280;43720;47.462;19.030;2023-02-16T06:29:53;101642.84;;;-1.89;100.00
57904;BME280;43720;47.462;19.030;2023-02-16T06:32:55;101642.44;;;-1.53;98.69
57904;BME280;43720;47.462;19.030;2023-02-16T06:35:57;101628.72;;;-1.64;98.50
57904;BME280;43720;47.462;19.030;2023-02-16T06:38:59;101644.34;;;-1.71;98.84
57904;BME280;43720;47.462;19.030;2023-02-16T06:42:02;101647.19;;;-1.68;99.16
57904;BME280;43720;47.462;19.030;2023-02-16T06:45:05;101644.06;;;-1.33;97.49
57904;BME280;43720;47.462;19.030;2023-02-16T06:48:07;101637.00;;;-1.36;97.45
57904;BME280;43720;47.462;19.030;2023-02-16T06:51:09;101633.19;;;-1.41;98.25
57904;BME280;43720;47.462;19.030;2023-02-16T06:54:12;101627.78;;;-1.44;98.86
57904;BME280;43720;47.462;19.030;2023-02-16T06:57:15;101628.25;;;-1.17;97.83
57904;BME280;43720;47.462;19.030;2023-02-16T07:00:17;101634.00;;;-1.00;97.31
57904;BME280;43720;47.462;19.030;2023-02-16T07:03:20;101620.28;;;-0.68;96.17
57904;BME280;43720;47.462;19.030;2023-02-16T07:06:24;101620.22;;;-0.58;94.67
57904;BME280;43720;47.462;19.030;2023-02-16T07:09:27;101619.09;;;-0.39;94.69
57904;BME280;43720;47.462;19.030;2023-02-16T07:12:30;101617.00;;;-0.33;93.87
57904;BME280;43720;47.462;19.030;2023-02-16T07:15:32;101627.41;;;-0.54;96.31
57904;BME280;43720;47.462;19.030;2023-02-16T07:18:35;101620.34;;;-0.34;96.88
57904;BME280;43720;47.462;19.030;2023-02-16T07:21:37;101616.81;;;-0.03;95.41
57904;BME280;43720;47.462;19.030;2023-02-16T07:24:39;101620.78;;;0.16;94.80
57904;BME280;43720;47.462;19.030;2023-02-16T07:27:42;101621.47;;;0.25;94.56
57904;BME280;43720;47.462;19.030;2023-02-16T07:30:44;101624.72;;;0.34;94.35
57904;BME280;43720;47.462;19.030;2023-02-16T07:33:46;101619.97;;;0.51;95.08
57904;BME280;43720;47.462;19.030;2023-02-16T07:36:49;101623.22;;;0.60;94.19
57904;BME280;43720;47.462;19.030;2023-02-16T07:39:51;101616.94;;;0.68;94.68
57904;BME280;43720;47.462;19.030;2023-02-16T07:42:58;101612.16;;;0.84;93.84
57904;BME280;43720;47.462;19.030;2023-02-16T07:46:01;101605.88;;;0.92;94.71
57904;BME280;43720;47.462;19.030;2023-02-16T07:49:03;101597.13;;;1.26;93.86
57904;BME280;43720;47.462;19.030;2023-02-16T07:52:06;101606.53;;;1.62;91.81
57904;BME280;43720;47.462;19.030;2023-02-16T07:55:09;101602.66;;;1.80;89.41
57904;BME280;43720;47.462;19.030;2023-02-16T07:58:12;101607.59;;;1.77;89.37
57904;BME280;43720;47.462;19.030;2023-02-16T08:01:29;101604.34;;;2.05;88.54
57904;BME280;43720;47.462;19.030;2023-02-16T08:04:33;101599.37;;;1.94;89.19
57904;BME280;43720;47.462;19.030;2023-02-16T08:07:35;101606.91;;;2.05;88.85
57904;BME280;43720;47.462;19.030;2023-02-16T08:10:38;101610.28;;;2.04;88.74
57904;BME280;43720;47.462;19.030;2023-02-16T08:13:40;101605.00;;;2.14;89.07
57904;BME280;43720;47.462;19.030;2023-02-16T08:16:45;101610.66;;;2.22;88.33
57904;BME280;43720;47.462;19.030;2023-02-16T08:19:48;101614.22;;;2.24;88.86
57904;BME280;43720;47.462;19.030;2023-02-16T08:22:53;101614.53;;;2.28;88.05
57904;BME280;43720;47.462;19.030;2023-02-16T08:25:55;101622.31;;;2.41;87.85
57904;BME280;43720;47.462;19.030;2023-02-16T08:29:00;101616.47;;;2.44;88.18
57904;BME280;43720;47.462;19.030;2023-02-16T08:32:03;101611.41;;;2.59;87.55
57904;BME280;43720;47.462;19.030;2023-02-16T08:35:09;101613.31;;;2.61;87.19
57904;BME280;43720;47.462;19.030;2023-02-16T08:38:11;101619.66;;;2.66;86.46
57904;BME280;43720;47.462;19.030;2023-02-16T08:41:13;101621.78;;;2.72;86.82
57904;BME280;43720;47.462;19.030;2023-02-16T08:44:18;101624.66;;;2.77;86.16
57904;BME280;43720;47.462;19.030;2023-02-16T08:47:20;101614.53;;;2.80;86.52
57904;BME280;43720;47.462;19.030;2023-02-16T08:50:25;101613.03;;;2.97;86.73
57904;BME280;43720;47.462;19.030;2023-02-16T08:53:27;101610.28;;;3.07;87.12
57904;BME280;43720;47.462;19.030;2023-02-16T08:56:34;101619.78;;;3.21;85.32
57904;BME280;43720;47.462;19.030;2023-02-16T08:59:36;101619.28;;;3.27;86.08
57904;BME280;43720;47.462;19.030;2023-02-16T09:02:38;101611.50;;;3.40;85.04
57904;BME280;43720;47.462;19.030;2023-02-16T09:05:41;101614.75;;;3.51;85.67
57904;BME280;43720;47.462;19.030;2023-02-16T09:08:43;101617.63;;;3.55;85.02
57904;BME280;43720;47.462;19.030;2023-02-16T09:11:47;101617.13;;;3.61;85.31
57904;BME280;43720;47.462;19.030;2023-02-16T09:14:52;101613.94;;;3.65;85.23
57904;BME280;43720;47.462;19.030;2023-02-16T09:17:55;101621.91;;;3.68;85.24
57904;BME280;43720;47.462;19.030;2023-02-16T09:21:03;101611.56;;;3.68;86.53
57904;BME280;43720;47.462;19.030;2023-02-16T09:24:06;101613.41;;;3.99;85.02
57904;BME280;43720;47.462;19.030;2023-02-16T09:27:08;101605.78;;;4.15;83.88
57904;BME280;43720;47.462;19.030;2023-02-16T09:30:13;101607.56;;;4.16;83.50
57904;BME280;43720;47.462;19.030;2023-02-16T09:33:15;101606.75;;;4.17;84.62
57904;BME280;43720;47.462;19.030;2023-02-16T09:36:17;101611.09;;;4.46;83.61
57904;BME280;43720;47.462;19.030;2023-02-16T09:39:19;101605.91;;;4.46;82.89
57904;BME280;43720;47.462;19.030;2023-02-16T09:42:43;101599.13;;;4.63;82.19
57904;BME280;43720;47.462;19.030;2023-02-16T09:45:52;101608.12;;;4.70;82.38
57904;BME280;43720;47.462;19.030;2023-02-16T09:48:56;101598.03;;;4.89;81.05
57904;BME280;43720;47.462;19.030;2023-02-16T09:52:22;101605.72;;;5.19;80.58
57904;BME280;43720;47.462;19.030;2023-02-16T09:55:33;101598.47;;;5.28;79.26
57904;BME280;43720;47.462;19.030;2023-02-16T09:58:43;101593.47;;;5.31;78.99
57904;BME280;43720;47.462;19.030;2023-02-16T10:08:36;101589.78;;;5.58;78.61
57904;BME280;43720;47.462;19.030;2023-02-16T10:11:45;101588.66;;;5.70;78.42
57904;BME280;43720;47.462;19.030;2023-02-16T10:14:53;101590.53;;;5.88;78.33
57904;BME280;43720;47.462;19.030;2023-02-16T10:18:03;101584.59;;;5.91;77.56
57904;BME280;43720;47.462;19.030;2023-02-16T10:21:16;101584.94;;;5.97;77.39
57904;BME280;43720;47.462;19.030;2023-02-16T10:24:20;101586.53;;;6.11;78.06
57904;BME280;43720;47.462;19.030;2023-02-16T10:27:27;101578.59;;;6.25;77.46
57904;BME280;43720;47.462;19.030;2023-02-16T10:30:33;101580.47;;;6.27;78.25
57904;BME280;43720;47.462;19.030;2023-02-16T10:40:58;101564.16;;;6.66;76.41
57904;BME280;43720;47.462;19.030;2023-02-16T10:44:03;101563.94;;;6.61;76.82
57904;BME280;43720;47.462;19.030;2023-02-16T10:47:32;101560.16;;;6.72;76.52
57904;BME280;43720;47.462;19.030;2023-02-16T10:50:39;101558.69;;;6.77;76.44
57904;BME280;43720;47.462;19.030;2023-02-16T10:53:48;101544.81;;;6.95;75.92
57904;BME280;43720;47.462;19.030;2023-02-16T10:56:56;101542.03;;;7.09;75.79
57904;BME280;43720;47.462;19.030;2023-02-16T11:00:05;101536.59;;;7.23;75.21
57904;BME280;43720;47.462;19.030;2023-02-16T11:03:09;101532.91;;;7.18;75.15
57904;BME280;43720;47.462;19.030;2023-02-16T11:06:15;101535.34;;;7.15;75.13
57904;BME280;43720;47.462;19.030;2023-02-16T11:09:26;101523.09;;;7.31;75.98
57904;BME280;43720;47.462;19.030;2023-02-16T11:12:37;101528.13;;;7.46;75.58
57904;BME280;43720;47.462;19.030;2023-02-16T11:15:40;101526.91;;;7.57;74.29
57904;BME280;43720;47.462;19.030;2023-02-16T11:18:46;101523.12;;;7.70;74.14
57904;BME280;43720;47.462;19.030;2023-02-16T11:21:53;101517.81;;;7.67;72.97
57904;BME280;43720;47.462;19.030;2023-02-16T11:28:30;101507.50;;;7.70;73.74
57904;BME280;43720;47.462;19.030;2023-02-16T11:31:36;101504.66;;;7.83;73.56
57904;BME280;43720;47.462;19.030;2023-02-16T11:34:46;101497.06;;;7.90;72.87
57904;BME280;43720;47.462;19.030;2023-02-16T11:37:49;101492.19;;;7.97;72.96
57904;BME280;43720;47.462;19.030;2023-02-16T11:40:52;101490.94;;;8.08;72.58
57904;BME280;43720;47.462;19.030;2023-02-16T11:43:55;101487.59;;;8.11;72.21
57904;BME280;43720;47.462;19.030;2023-02-16T11:46:59;101483.47;;;8.16;72.64
57904;BME280;43720;47.462;19.030;2023-02-16T11:50:18;101489.78;;;8.21;71.72
57904;BME280;43720;47.462;19.030;2023-02-16T11:53:31;101479.19;;;8.38;71.28
57904;BME280;43720;47.462;19.030;2023-02-16T11:56:35;101469.66;;;8.38;71.36
57904;BME280;43720;47.462;19.030;2023-02-16T11:59:38;101469.66;;;8.38;71.74
57904;BME280;43720;47.462;19.030;2023-02-16T12:02:48;101465.06;;;8.53;71.06
57904;BME280;43720;47.462;19.030;2023-02-16T12:09:43;101451.50;;;8.62;71.41
57904;BME280;43720;47.462;19.030;2023-02-16T12:20:10;101430.78;;;8.88;70.64
57904;BME280;43720;47.462;19.030;2023-02-16T12:26:51;101412.81;;;8.95;70.21
57904;BME280;43720;47.462;19.030;2023-02-16T12:36:31;101413.16;;;9.28;70.02
57904;BME280;43720;47.462;19.030;2023-02-16T12:43:41;101396.31;;;9.44;68.33
57904;BME280;43720;47.462;19.030;2023-02-16T12:46:47;101389.56;;;9.49;67.60
57904;BME280;43720;47.462;19.030;2023-02-16T12:50:05;101388.72;;;9.50;67.20
57904;BME280;43720;47.462;19.030;2023-02-16T12:53:23;101380.72;;;9.46;67.00
57904;BME280;43720;47.462;19.030;2023-02-16T13:01:20;101373.34;;;9.34;67.48
57904;BME280;43720;47.462;19.030;2023-02-16T13:04:49;101370.75;;;9.34;67.61
57904;BME280;43720;47.462;19.030;2023-02-16T13:08:01;101358.00;;;9.43;67.78
57904;BME280;43720;47.462;19.030;2023-02-16T13:11:20;101356.28;;;9.44;67.82
57904;BME280;43720;47.462;19.030;2023-02-16T13:14:28;101342.47;;;9.46;67.55
57904;BME280;43720;47.462;19.030;2023-02-16T13:17:48;101342.69;;;9.52;66.80
57904;BME280;43720;47.462;19.030;2023-02-16T13:21:04;101346.59;;;9.65;67.03
57904;BME280;43720;47.462;19.030;2023-02-16T13:35:12;101325.63;;;9.64;67.05
57904;BME280;43720;47.462;19.030;2023-02-16T13:44:47;101314.78;;;9.77;63.87
57904;BME280;43720;47.462;19.030;2023-02-16T13:47:53;101314.19;;;9.86;63.75
57904;BME280;43720;47.462;19.030;2023-02-16T13:50:59;101318.13;;;10.00;62.66
57904;BME280;43720;47.462;19.030;2023-02-16T13:54:04;101323.47;;;10.03;63.60
57904;BME280;43720;47.462;19.030;2023-02-16T13:57:14;101305.41;;;10.11;63.43
57904;BME280;43720;47.462;19.030;2023-02-16T14:00:39;101313.41;;;10.17;62.60
57904;BME280;43720;47.462;19.030;2023-02-16T14:03:43;101311.56;;;10.13;62.58
57904;BME280;43720;47.462;19.030;2023-02-16T14:06:45;101321.87;;;10.08;62.52
57904;BME280;43720;47.462;19.030;2023-02-16T14:09:48;101314.06;;;10.10;62.83
57904;BME280;43720;47.462;19.030;2023-02-16T14:12:50;101311.59;;;10.14;62.99
57904;BME280;43720;47.462;19.030;2023-02-16T14:15:55;101308.16;;;10.15;62.94
57904;BME280;43720;47.462;19.030;2023-02-16T14:19:01;101299.47;;;10.16;63.46
57904;BME280;43720;47.462;19.030;2023-02-16T14:22:10;101308.72;;;10.07;63.73
57904;BME280;43720;47.462;19.030;2023-02-16T14:31:40;101309.44;;;10.01;64.36
57904;BME280;43720;47.462;19.030;2023-02-16T14:38:21;101313.69;;;9.97;64.09
57904;BME280;43720;47.462;19.030;2023-02-16T14:41:32;101304.00;;;9.95;64.61
57904;BME280;43720;47.462;19.030;2023-02-16T14:58:26;101311.28;;;9.76;66.68
57904;BME280;43720;47.462;19.030;2023-02-16T15:01:41;101297.72;;;9.61;67.09
57904;BME280;43720;47.462;19.030;2023-02-16T15:04:43;101305.72;;;9.67;67.72
57904;BME280;43720;47.462;19.030;2023-02-16T15:07:50;101304.81;;;9.65;68.11
57904;BME280;43720;47.462;19.030;2023-02-16T15:10:54;101300.19;;;9.57;69.23
57904;BME280;43720;47.462;19.030;2023-02-16T15:14:06;101306.81;;;9.47;69.48
57904;BME280;43720;47.462;19.030;2023-02-16T15:17:26;101310.88;;;9.39;70.16
57904;BME280;43720;47.462;19.030;2023-02-16T15:20:32;101307.13;;;9.30;70.97
57904;BME280;43720;47.462;19.030;2023-02-16T15:23:35;101300.44;;;9.39;70.95
57904;BME280;43720;47.462;19.030;2023-02-16T15:26:38;101303.97;;;9.41;71.25
57904;BME280;43720;47.462;19.030;2023-02-16T15:29:40;101298.56;;;9.35;71.57
57904;BME280;43720;47.462;19.030;2023-02-16T15:32:49;101306.09;;;9.25;72.01
57904;BME280;43720;47.462;19.030;2023-02-16T15:36:00;101296.09;;;9.14;72.84
57904;BME280;43720;47.462;19.030;2023-02-16T15:39:29;101305.94;;;8.97;73.69
57904;BME280;43720;47.462;19.030;2023-02-16T15:42:53;101304.66;;;8.86;74.33
57904;BME280;43720;47.462;19.030;2023-02-16T15:45:59;101312.91;;;8.74;75.18
57904;BME280;43720;47.462;19.030;2023-02-16T15:49:26;101304.81;;;8.66;75.95
57904;BME280;43720;47.462;19.030;2023-02-16T15:52:33;101309.75;;;8.58;76.48
57904;BME280;43720;47.462;19.030;2023-02-16T15:55:44;101312.00;;;8.49;77.14
57904;BME280;43720;47.462;19.030;2023-02-16T15:58:48;101311.34;;;8.32;77.94
57904;BME280;43720;47.462;19.030;2023-02-16T16:05:28;101309.41;;;7.83;80.36
57904;BME280;43720;47.462;19.030;2023-02-16T16:08:31;101309.94;;;7.75;80.93
57904;BME280;43720;47.462;19.030;2023-02-16T16:11:34;101303.12;;;7.57;81.61
57904;BME280;43720;47.462;19.030;2023-02-16T16:14:57;101304.41;;;7.67;81.41
57904;BME280;43720;47.462;19.030;2023-02-16T16:18:00;101314.03;;;7.70;80.98
57904;BME280;43720;47.462;19.030;2023-02-16T16:21:24;101303.44;;;7.65;81.09
57904;BME280;43720;47.462;19.030;2023-02-16T16:24:35;101303.00;;;7.54;81.50
57904;BME280;43720;47.462;19.030;2023-02-16T16:27:46;101303.69;;;7.50;81.85
57904;BME280;43720;47.462;19.030;2023-02-16T16:31:14;101309.34;;;7.40;82.19
57904;BME280;43720;47.462;19.030;2023-02-16T16:34:37;101308.19;;;7.33;82.40
57904;BME280;43720;47.462;19.030;2023-02-16T16:37:40;101316.03;;;7.14;83.17
57904;BME280;43720;47.462;19.030;2023-02-16T16:40:49;101320.69;;;7.02;83.91
57904;BME280;43720;47.462;19.030;2023-02-16T16:43:55;101319.38;;;6.92;84.64
57904;BME280;43720;47.462;19.030;2023-02-16T16:50:37;101326.59;;;6.78;85.47
